LEVC/VLC METAR and TAF weather

Enter ICAO airport designator
Station Type Date Time Source
LEVC METAR 2022/08/16 19:30 UTC NOAA

LEVC 161930Z 04006KT 020V110 CAVOK 30/19 Q1006 NOSIG


Station Type Date Time Source
LEVC Decoded METAR 2022/08/16 19:30 UTC NOAA

Valencia / Aeropuerto, Spain (LEVC) 39-30N 000-28W 62M
Aug 16, 2022 - 03:30 PM EDT / 2022.08.16 1930 UTC
Wind: from the NE (040 degrees) at 7 MPH (6 KT) (direction variable):0
Visibility: greater than 7 mile(s):0
Temperature: 86 F (30 C)
Dew Point: 66 F (19 C)
Relative Humidity: 51%
Pressure (altimeter): 29.71 in. Hg (1006 hPa)
ob: LEVC 161930Z 04006KT 020V110 CAVOK 30/19 Q1006 NOSIG
cycle: 19

Station Type Date Time Source
LEVC TAF 2022/08/16 19:00 UTC NOAA

TAF
AMD LEVC 161957Z 1619/1718 14015KT 9999 FEW030 TX33/1712Z TN20/1705Z
TEMPO 1621/1624 04010KT
BECMG 1711/1713 12010KT
TEMPO 1619/1701 06013KT

Example: see airport list